Terminal Aerodrome Forecast
Issued by NWS Omaha/Valley, NE

Home | Current Version | Previous Version | Text Only | Print | Product List | Glossary On
Versions: 1 2 3 4 5 6 7 8 9 10 11 12 13 14 15 16 17 18 19 20 21 22 23 24 25 26 27
000
FTUS43 KOAX 220520
TAFLNK
TAF
KLNK 220520Z 2206/2306 17016G23KT P6SM SKC WS020/20050KT
     FM221300 18013KT P6SM FEW250
     FM221900 18018G27KT P6SM FEW200
     FM230200 16010KT P6SM FEW200=

USA.gov is the U.S. government's official web portal to all federal, state and local government web resources and services.